createdAt,value
2022-07-26T00:00:51.068Z,19.23
2022-07-26T00:01:51.072Z,19.22
2022-07-26T00:02:51.004Z,19.14
2022-07-26T00:03:50.976Z,19.06
2022-07-26T00:04:50.955Z,19.06
2022-07-26T00:05:50.947Z,19.02
2022-07-26T00:06:50.967Z,19.02
2022-07-26T00:07:50.927Z,19.02
2022-07-26T00:08:50.967Z,18.95
2022-07-26T00:09:50.931Z,18.99
2022-07-26T00:10:50.892Z,18.99
2022-07-26T00:11:50.885Z,18.99
2022-07-26T00:12:50.871Z,19.02
2022-07-26T00:13:50.864Z,18.98
2022-07-26T00:14:50.851Z,19.07
2022-07-26T00:15:50.864Z,19.04
2022-07-26T00:16:50.902Z,19.04
2022-07-26T00:17:50.822Z,18.98
2022-07-26T00:18:50.827Z,19.02
2022-07-26T00:19:50.862Z,19.04
2022-07-26T00:20:50.794Z,18.95
2022-07-26T00:21:50.785Z,18.90
2022-07-26T00:22:50.766Z,18.85
2022-07-26T00:23:50.770Z,18.92
2022-07-26T00:24:50.794Z,18.84
2022-07-26T00:25:50.766Z,18.84
2022-07-26T00:26:50.736Z,18.84
2022-07-26T00:27:50.719Z,18.85
2022-07-26T00:28:50.711Z,18.85
2022-07-26T00:29:50.722Z,18.90
2022-07-26T00:30:50.688Z,18.85
2022-07-26T00:31:50.746Z,18.82
2022-07-26T00:32:50.693Z,18.75
2022-07-26T00:33:50.659Z,18.84
2022-07-26T00:34:50.671Z,18.81
2022-07-26T00:35:50.641Z,18.85
2022-07-26T00:36:50.688Z,18.75
2022-07-26T00:37:50.618Z,18.76
2022-07-26T00:38:50.628Z,18.75
2022-07-26T00:39:50.595Z,18.75
2022-07-26T00:40:50.603Z,18.70
2022-07-26T00:41:50.574Z,18.72
2022-07-26T00:42:50.564Z,18.75
2022-07-26T00:43:50.554Z,18.85
2022-07-26T00:44:50.541Z,18.72
2022-07-26T00:45:50.652Z,18.69
2022-07-26T00:46:50.743Z,18.65
2022-07-26T00:47:50.553Z,18.66
2022-07-26T00:48:50.555Z,18.72
2022-07-26T00:49:50.493Z,18.54
2022-07-26T00:50:50.482Z,18.58
2022-07-26T00:51:50.475Z,18.51
2022-07-26T00:52:50.485Z,18.58
2022-07-26T00:53:50.477Z,18.50
2022-07-26T00:54:50.457Z,18.45
2022-07-26T00:55:50.434Z,18.48
2022-07-26T00:56:54.838Z,18.62
2022-07-26T00:57:50.412Z,18.60
2022-07-26T00:58:50.433Z,18.57
2022-07-26T00:59:50.390Z,18.55
2022-07-26T01:00:50.439Z,18.60
2022-07-26T01:01:50.432Z,18.55
2022-07-26T01:02:50.440Z,18.58
2022-07-26T01:03:50.352Z,18.65
2022-07-26T01:04:50.363Z,18.63
2022-07-26T01:05:50.325Z,18.60
2022-07-26T01:06:50.324Z,18.57
2022-07-26T01:07:50.323Z,18.60
2022-07-26T01:08:50.296Z,18.54
2022-07-26T01:09:50.321Z,18.63
2022-07-26T01:10:50.276Z,18.62
2022-07-26T01:11:50.299Z,18.52
2022-07-26T01:12:50.253Z,18.57
2022-07-26T01:13:50.242Z,18.54
2022-07-26T01:14:50.263Z,18.51
2022-07-26T01:15:50.269Z,18.52
2022-07-26T01:16:50.215Z,18.39
2022-07-26T01:17:50.218Z,18.44
2022-07-26T01:18:50.220Z,18.44
2022-07-26T01:19:50.213Z,18.41
2022-07-26T01:20:50.177Z,18.39
2022-07-26T01:21:50.184Z,18.41
2022-07-26T01:22:50.150Z,18.42
2022-07-26T01:23:50.141Z,18.41
2022-07-26T01:24:50.141Z,18.39
2022-07-26T01:25:50.112Z,18.39
2022-07-26T01:26:50.137Z,18.42
2022-07-26T01:27:50.143Z,18.36
2022-07-26T01:28:50.123Z,18.42
2022-07-26T01:29:50.077Z,18.36
2022-07-26T01:30:50.128Z,18.37
2022-07-26T01:31:50.144Z,18.47
2022-07-26T01:32:50.042Z,18.44
2022-07-26T01:33:50.033Z,18.39
2022-07-26T01:34:50.029Z,18.44
2022-07-26T01:35:50.129Z,18.44
2022-07-26T01:36:50.082Z,18.33
2022-07-26T01:37:49.996Z,18.36
2022-07-26T01:38:50.010Z,18.37
2022-07-26T01:39:49.969Z,18.37
2022-07-26T01:40:49.957Z,18.30
2022-07-26T01:41:49.973Z,18.32
2022-07-26T01:42:49.941Z,18.29
2022-07-26T01:43:49.956Z,18.26
2022-07-26T01:44:49.956Z,18.25
2022-07-26T01:45:49.980Z,18.21
2022-07-26T01:46:49.894Z,18.18
2022-07-26T01:47:49.885Z,18.12
2022-07-26T01:48:49.915Z,18.17
2022-07-26T01:49:49.914Z,18.21
2022-07-26T01:50:49.861Z,18.08
2022-07-26T01:51:49.897Z,18.14
2022-07-26T01:52:49.833Z,18.08
2022-07-26T01:53:49.825Z,18.11
2022-07-26T01:54:49.817Z,18.12
2022-07-26T01:55:49.800Z,18.14
2022-07-26T01:56:49.864Z,18.11
2022-07-26T01:57:49.777Z,18.12
2022-07-26T01:58:49.775Z,18.02
2022-07-26T01:59:49.763Z,18.05
2022-07-26T02:00:49.747Z,18.12
2022-07-26T02:01:49.859Z,18.15
2022-07-26T02:02:49.869Z,18.11
2022-07-26T02:03:49.715Z,18.02
2022-07-26T02:04:49.719Z,18.00
2022-07-26T02:05:49.693Z,18.03
2022-07-26T02:06:49.685Z,18.02
2022-07-26T02:07:49.674Z,18.00
2022-07-26T02:08:49.687Z,18.08
2022-07-26T02:09:49.760Z,18.05
2022-07-26T02:10:49.681Z,17.97
2022-07-26T02:11:49.633Z,17.92
2022-07-26T02:12:49.625Z,18.02
2022-07-26T02:13:53.022Z,18.02
2022-07-26T02:14:49.603Z,18.03
2022-07-26T02:15:49.606Z,17.95
2022-07-26T02:16:49.601Z,17.95
2022-07-26T02:17:49.567Z,17.96
2022-07-26T02:18:49.563Z,17.79
2022-07-26T02:19:49.543Z,17.86
2022-07-26T02:20:49.551Z,17.90
2022-07-26T02:21:49.523Z,17.87
2022-07-26T02:22:49.509Z,17.86
2022-07-26T02:23:49.515Z,17.82
2022-07-26T02:24:49.491Z,17.87
2022-07-26T02:25:49.541Z,17.75
2022-07-26T02:26:49.487Z,17.79
2022-07-26T02:27:49.476Z,17.87
2022-07-26T02:28:49.449Z,17.89
2022-07-26T02:29:49.446Z,17.81
2022-07-26T02:30:49.438Z,17.82
2022-07-26T02:31:49.568Z,17.84
2022-07-26T02:32:49.432Z,17.95
2022-07-26T02:33:49.401Z,17.82
2022-07-26T02:34:49.382Z,17.92
2022-07-26T02:35:49.405Z,17.96
2022-07-26T02:36:49.363Z,17.92
2022-07-26T02:37:49.356Z,17.93
2022-07-26T02:38:49.352Z,17.93
2022-07-26T02:39:49.332Z,17.84
2022-07-26T02:40:49.387Z,17.93
2022-07-26T02:41:49.327Z,17.95
2022-07-26T02:42:49.304Z,17.87
2022-07-26T02:43:49.294Z,17.84
2022-07-26T02:44:49.287Z,17.82
2022-07-26T02:46:01.677Z,17.95
2022-07-26T02:46:49.365Z,17.89
2022-07-26T02:47:49.246Z,17.84
2022-07-26T02:48:49.248Z,17.82
2022-07-26T02:49:49.225Z,17.92
2022-07-26T02:50:49.239Z,17.86
2022-07-26T02:51:49.209Z,17.79
2022-07-26T02:52:49.226Z,17.82
2022-07-26T02:53:49.191Z,17.82
2022-07-26T02:54:49.169Z,17.79
2022-07-26T02:55:49.187Z,17.82
2022-07-26T02:56:49.149Z,17.84
2022-07-26T02:57:49.218Z,17.86
2022-07-26T02:58:49.123Z,17.87
2022-07-26T02:59:49.132Z,17.84
2022-07-26T03:00:49.121Z,17.82
2022-07-26T03:01:49.189Z,17.79
2022-07-26T03:02:49.155Z,17.89
2022-07-26T03:03:51.091Z,17.84
2022-07-26T03:04:49.066Z,17.90
2022-07-26T03:05:49.053Z,17.79
2022-07-26T03:06:49.038Z,17.81
2022-07-26T03:07:49.051Z,17.84
2022-07-26T03:08:49.018Z,17.81
2022-07-26T03:09:49.041Z,17.86
2022-07-26T03:10:49.003Z,17.87
2022-07-26T03:11:48.989Z,17.87
2022-07-26T03:12:48.981Z,17.92
2022-07-26T03:13:48.970Z,17.86
2022-07-26T03:14:49.009Z,17.87
2022-07-26T03:15:48.996Z,17.75
2022-07-26T03:16:48.934Z,17.84
2022-07-26T03:17:48.936Z,17.92
2022-07-26T03:18:48.911Z,17.84
2022-07-26T03:19:48.906Z,17.82
2022-07-26T03:20:48.967Z,17.82
2022-07-26T03:21:48.885Z,17.79
2022-07-26T03:22:48.927Z,17.81
2022-07-26T03:23:48.869Z,17.84
2022-07-26T03:24:48.849Z,17.81
2022-07-26T03:25:48.894Z,17.87
2022-07-26T03:26:48.843Z,17.79
2022-07-26T03:27:48.816Z,17.78
2022-07-26T03:28:48.810Z,17.95
2022-07-26T03:29:48.796Z,17.84
2022-07-26T03:30:48.865Z,17.82
2022-07-26T03:31:48.777Z,17.79
2022-07-26T03:32:48.773Z,17.81
2022-07-26T03:33:48.756Z,17.78
2022-07-26T03:34:48.737Z,17.87
2022-07-26T03:35:48.734Z,17.90
2022-07-26T03:36:48.760Z,17.89
2022-07-26T03:37:48.735Z,17.78
2022-07-26T03:38:48.714Z,17.75
2022-07-26T03:39:48.690Z,17.74
2022-07-26T03:40:48.684Z,17.78
2022-07-26T03:41:48.673Z,17.75
2022-07-26T03:42:48.653Z,17.75
2022-07-26T03:43:48.665Z,17.75
2022-07-26T03:44:48.635Z,17.78
2022-07-26T03:45:48.650Z,17.79
2022-07-26T03:46:48.677Z,17.77
2022-07-26T03:47:48.603Z,17.74
2022-07-26T03:48:48.640Z,17.74
2022-07-26T03:49:48.599Z,17.84
2022-07-26T03:50:48.571Z,17.75
2022-07-26T03:51:48.560Z,17.77
2022-07-26T03:52:48.574Z,17.77
2022-07-26T03:53:48.549Z,17.77
2022-07-26T03:54:48.530Z,17.78
2022-07-26T03:55:48.515Z,17.82
2022-07-26T03:56:48.506Z,17.74
2022-07-26T03:57:48.557Z,17.74
2022-07-26T03:58:48.485Z,17.75
2022-07-26T03:59:48.472Z,17.78
2022-07-26T04:00:48.608Z,17.77
2022-07-26T04:01:48.515Z,17.79
2022-07-26T04:02:48.455Z,17.75
2022-07-26T04:03:48.455Z,17.79
2022-07-26T04:04:48.418Z,17.77
2022-07-26T04:05:48.825Z,17.77
2022-07-26T04:06:48.400Z,17.84
2022-07-26T04:07:52.956Z,17.78
2022-07-26T04:08:48.438Z,17.78
2022-07-26T04:09:48.400Z,17.79
2022-07-26T04:10:48.362Z,17.81
2022-07-26T04:11:48.345Z,17.82
2022-07-26T04:12:48.512Z,17.81
2022-07-26T04:13:48.339Z,17.78
2022-07-26T04:14:48.352Z,17.78
2022-07-26T04:15:48.304Z,17.74
2022-07-26T04:16:48.359Z,17.72
2022-07-26T04:17:48.406Z,17.74
2022-07-26T04:18:48.276Z,17.68
2022-07-26T04:19:48.348Z,17.77
2022-07-26T04:20:48.246Z,17.77
2022-07-26T04:21:48.245Z,17.74
2022-07-26T04:22:48.230Z,17.74
2022-07-26T04:23:51.302Z,17.72
2022-07-26T04:24:48.233Z,17.72
2022-07-26T04:25:48.238Z,17.70
2022-07-26T04:26:48.189Z,17.71
2022-07-26T04:27:48.172Z,17.74
2022-07-26T04:28:48.160Z,17.74
2022-07-26T04:29:48.149Z,17.74
2022-07-26T04:30:48.210Z,17.71
2022-07-26T04:31:48.133Z,17.59
2022-07-26T04:32:48.114Z,17.62
2022-07-26T04:33:48.117Z,17.62
2022-07-26T04:34:48.096Z,17.72
2022-07-26T04:35:48.118Z,17.70
2022-07-26T04:36:48.081Z,17.72
2022-07-26T04:37:48.116Z,17.70
2022-07-26T04:38:48.066Z,17.68
2022-07-26T04:39:52.964Z,17.72
2022-07-26T04:40:48.031Z,17.74
2022-07-26T04:41:48.031Z,17.75
2022-07-26T04:42:48.006Z,17.70
2022-07-26T04:43:48.011Z,17.74
2022-07-26T04:44:47.994Z,17.74
2022-07-26T04:45:48.094Z,17.71
2022-07-26T04:46:47.968Z,17.75
2022-07-26T04:47:47.956Z,17.68
2022-07-26T04:48:48.102Z,17.75
2022-07-26T04:49:47.971Z,17.71
2022-07-26T04:50:47.919Z,17.71
2022-07-26T04:51:47.920Z,17.72
2022-07-26T04:52:47.969Z,17.78
2022-07-26T04:53:47.893Z,17.74
2022-07-26T04:54:47.886Z,17.71
2022-07-26T04:55:47.912Z,17.74
2022-07-26T04:56:47.860Z,17.74
2022-07-26T04:57:47.951Z,17.74
2022-07-26T04:58:47.875Z,17.70
2022-07-26T04:59:58.090Z,17.71
2022-07-26T05:01:08.907Z,17.74
2022-07-26T05:01:47.870Z,17.71
2022-07-26T05:02:47.963Z,17.72
2022-07-26T05:03:47.783Z,17.71
2022-07-26T05:04:47.779Z,17.71
2022-07-26T05:05:47.816Z,17.74
2022-07-26T05:06:47.763Z,17.72
2022-07-26T05:07:47.741Z,17.74
2022-07-26T05:08:47.757Z,17.71
2022-07-26T05:09:47.728Z,17.74
2022-07-26T05:10:52.998Z,17.74
2022-07-26T05:11:47.708Z,17.81
2022-07-26T05:12:47.711Z,17.77
2022-07-26T05:13:47.673Z,17.79
2022-07-26T05:14:47.664Z,17.84
2022-07-26T05:15:47.650Z,17.77
2022-07-26T05:16:47.691Z,17.93
2022-07-26T05:17:47.647Z,17.82
2022-07-26T05:18:49.151Z,17.86
2022-07-26T05:19:49.297Z,17.84
2022-07-26T05:20:47.602Z,17.89
2022-07-26T05:21:47.641Z,17.86
2022-07-26T05:22:47.582Z,17.87
2022-07-26T05:23:47.567Z,17.87
2022-07-26T05:24:47.557Z,17.79
2022-07-26T05:25:47.574Z,17.79
2022-07-26T05:26:47.533Z,17.74
2022-07-26T05:27:47.557Z,17.75
2022-07-26T05:28:47.510Z,17.86
2022-07-26T05:29:47.502Z,17.79
2022-07-26T05:30:47.545Z,17.78
2022-07-26T05:31:47.474Z,17.75
2022-07-26T05:32:47.503Z,17.77
2022-07-26T05:33:47.531Z,17.71
2022-07-26T05:34:47.521Z,17.74
2022-07-26T05:35:47.431Z,17.75
2022-07-26T05:36:47.431Z,17.72
2022-07-26T05:37:47.412Z,17.81
2022-07-26T05:38:47.405Z,17.75
2022-07-26T05:39:47.398Z,17.74
2022-07-26T05:40:50.754Z,17.82
2022-07-26T05:41:47.368Z,17.74
2022-07-26T05:42:47.375Z,17.75
2022-07-26T05:43:47.346Z,17.78
2022-07-26T05:44:47.356Z,17.82
2022-07-26T05:45:47.397Z,17.84
2022-07-26T05:46:47.383Z,17.82
2022-07-26T05:47:47.303Z,17.92
2022-07-26T05:48:47.326Z,17.92
2022-07-26T05:49:47.281Z,17.92
2022-07-26T05:50:47.273Z,17.82
2022-07-26T05:51:47.262Z,17.89
2022-07-26T05:52:47.253Z,17.96
2022-07-26T05:53:47.239Z,17.92
2022-07-26T05:54:47.251Z,17.95
2022-07-26T05:55:47.245Z,17.93
2022-07-26T05:56:47.213Z,17.90
2022-07-26T05:57:47.201Z,17.90
2022-07-26T05:58:47.186Z,17.84
2022-07-26T05:59:47.186Z,17.92
2022-07-26T06:00:48.672Z,17.82
2022-07-26T06:01:47.158Z,17.89
2022-07-26T06:02:47.176Z,17.95
2022-07-26T06:03:47.171Z,17.93
2022-07-26T06:04:47.538Z,17.96
2022-07-26T06:05:47.141Z,17.97
2022-07-26T06:06:47.099Z,18.00
2022-07-26T06:07:47.085Z,18.03
2022-07-26T06:08:47.103Z,18.03
2022-07-26T06:09:48.286Z,18.03
2022-07-26T06:10:47.072Z,17.99
2022-07-26T06:11:47.041Z,18.10
2022-07-26T06:12:47.044Z,18.03
2022-07-26T06:13:47.076Z,18.00
2022-07-26T06:14:47.009Z,18.08
2022-07-26T06:15:47.006Z,18.05
2022-07-26T06:16:47.027Z,17.99
2022-07-26T06:17:46.988Z,18.05
2022-07-26T06:18:46.967Z,18.08
2022-07-26T06:19:47.860Z,18.08
2022-07-26T06:20:46.952Z,18.05
2022-07-26T06:21:46.932Z,17.96
2022-07-26T06:22:46.958Z,18.05
2022-07-26T06:23:46.913Z,18.05
2022-07-26T06:24:47.070Z,18.07
2022-07-26T06:25:46.893Z,17.97
2022-07-26T06:26:46.893Z,18.00
2022-07-26T06:27:46.869Z,18.08
2022-07-26T06:28:46.880Z,18.10
2022-07-26T06:29:46.853Z,17.99
2022-07-26T06:30:46.917Z,18.02
2022-07-26T06:31:46.943Z,18.11
2022-07-26T06:32:46.851Z,18.15
2022-07-26T06:33:46.803Z,18.17
2022-07-26T06:34:46.792Z,18.20
2022-07-26T06:35:46.804Z,18.23
2022-07-26T06:36:46.795Z,18.27
2022-07-26T06:37:46.788Z,18.35
2022-07-26T06:38:46.751Z,18.39
2022-07-26T06:39:46.749Z,18.39
2022-07-26T06:40:46.756Z,18.57
2022-07-26T06:41:46.772Z,18.54
2022-07-26T06:42:46.720Z,18.45
2022-07-26T06:43:46.721Z,18.44
2022-07-26T06:44:46.689Z,18.36
2022-07-26T06:45:46.771Z,18.39
2022-07-26T06:46:46.664Z,18.41
2022-07-26T06:47:46.719Z,18.39
2022-07-26T06:48:47.651Z,18.47
2022-07-26T06:49:46.631Z,18.36
2022-07-26T06:50:46.626Z,18.39
2022-07-26T06:51:46.619Z,18.37
2022-07-26T06:52:47.923Z,18.41
2022-07-26T06:53:46.598Z,18.42
2022-07-26T06:54:46.579Z,18.42
2022-07-26T06:55:46.565Z,18.47
2022-07-26T06:56:46.560Z,18.52
2022-07-26T06:57:49.959Z,18.52
2022-07-26T06:58:46.586Z,18.55
2022-07-26T06:59:46.531Z,18.54
2022-07-26T07:00:46.606Z,18.57
2022-07-26T07:01:58.459Z,18.55
2022-07-26T07:02:46.494Z,18.57
2022-07-26T07:03:46.494Z,18.51
2022-07-26T07:04:46.548Z,18.60
2022-07-26T07:05:49.721Z,18.62
2022-07-26T07:06:46.463Z,18.57
2022-07-26T07:07:46.438Z,18.57
2022-07-26T07:08:46.431Z,18.57
2022-07-26T07:09:46.442Z,18.60
2022-07-26T07:10:46.411Z,18.70
2022-07-26T07:11:46.393Z,18.69
2022-07-26T07:12:46.405Z,18.66
2022-07-26T07:13:46.373Z,18.73
2022-07-26T07:14:46.367Z,18.76
2022-07-26T07:15:46.409Z,18.84
2022-07-26T07:16:46.393Z,18.90
2022-07-26T07:17:46.333Z,19.00
2022-07-26T07:18:46.322Z,19.16
2022-07-26T07:19:46.313Z,19.22
2022-07-26T07:20:46.329Z,19.23
2022-07-26T07:21:46.289Z,19.25
2022-07-26T07:22:46.540Z,19.31
2022-07-26T07:23:46.269Z,19.18
2022-07-26T07:24:46.650Z,19.23
2022-07-26T07:25:46.250Z,19.21
2022-07-26T07:26:46.246Z,19.11
2022-07-26T07:27:46.399Z,19.13
2022-07-26T07:28:46.229Z,19.21
2022-07-26T07:29:46.219Z,19.26
2022-07-26T07:30:46.197Z,19.36
2022-07-26T07:31:48.672Z,19.41
2022-07-26T07:32:46.193Z,19.56
2022-07-26T07:33:53.453Z,19.62
2022-07-26T07:34:46.162Z,19.46
2022-07-26T07:35:46.145Z,19.44
2022-07-26T07:36:46.134Z,19.44
2022-07-26T07:37:53.664Z,19.44
2022-07-26T07:38:46.160Z,19.55
2022-07-26T07:39:50.042Z,19.61
2022-07-26T07:40:46.150Z,19.46
2022-07-26T07:41:46.108Z,19.44
2022-07-26T07:42:46.076Z,19.56
2022-07-26T07:43:46.068Z,19.63
2022-07-26T07:44:46.050Z,19.73
2022-07-26T07:45:48.344Z,19.86
2022-07-26T07:46:46.126Z,19.69
2022-07-26T07:47:46.033Z,19.61
2022-07-26T07:48:47.694Z,19.63
2022-07-26T07:49:46.017Z,19.40
2022-07-26T07:50:45.986Z,19.46
2022-07-26T07:51:45.977Z,19.47
2022-07-26T07:52:46.002Z,19.44
2022-07-26T07:53:56.206Z,19.39
2022-07-26T07:54:45.949Z,19.29
2022-07-26T07:55:46.664Z,19.25
2022-07-26T07:56:45.961Z,19.16
2022-07-26T07:57:45.959Z,18.67
2022-07-26T07:58:45.908Z,18.25
2022-07-26T07:59:45.949Z,18.03
2022-07-26T08:00:46.755Z,17.79
2022-07-26T08:01:45.907Z,17.86
2022-07-26T08:02:45.936Z,17.86
2022-07-26T08:03:45.885Z,17.70
2022-07-26T08:04:45.922Z,17.51
2022-07-26T08:05:45.846Z,17.25
2022-07-26T08:06:50.083Z,17.26
2022-07-26T08:07:45.808Z,17.14
2022-07-26T08:08:45.806Z,17.16
2022-07-26T08:09:45.787Z,16.98
2022-07-26T08:10:51.525Z,17.06
2022-07-26T08:11:45.767Z,17.03
2022-07-26T08:12:45.755Z,16.97
2022-07-26T08:13:47.935Z,17.21
2022-07-26T08:14:45.732Z,17.15
2022-07-26T08:15:45.723Z,17.22
2022-07-26T08:16:45.877Z,17.28
2022-07-26T08:17:45.777Z,17.30
2022-07-26T08:18:57.305Z,17.14
2022-07-26T08:19:45.723Z,17.18
2022-07-26T08:20:45.672Z,17.31
2022-07-26T08:21:45.666Z,17.43
2022-07-26T08:22:45.649Z,17.58
2022-07-26T08:23:45.638Z,17.64
2022-07-26T08:24:45.631Z,17.59
2022-07-26T08:25:55.730Z,17.56
2022-07-26T08:26:45.612Z,17.59
2022-07-26T08:28:02.664Z,17.56
2022-07-26T08:28:47.834Z,17.64
2022-07-26T08:29:45.585Z,17.71
2022-07-26T08:30:45.603Z,17.75
2022-07-26T08:31:45.614Z,17.89
2022-07-26T08:32:45.557Z,17.81
2022-07-26T08:33:46.218Z,17.72
2022-07-26T08:34:45.525Z,17.84
2022-07-26T08:35:45.510Z,17.90
2022-07-26T08:37:14.359Z,17.93
2022-07-26T08:37:45.489Z,18.14
2022-07-26T08:38:47.526Z,18.00
2022-07-26T08:39:45.465Z,18.17
2022-07-26T08:40:45.484Z,18.21
2022-07-26T08:41:45.446Z,18.26
2022-07-26T08:42:49.348Z,18.37
2022-07-26T08:43:51.390Z,18.35
2022-07-26T08:44:45.415Z,18.21
2022-07-26T08:45:45.403Z,18.03
2022-07-26T08:46:45.448Z,18.18
2022-07-26T08:48:07.297Z,18.25
2022-07-26T08:48:45.456Z,18.33
2022-07-26T08:49:45.387Z,18.27
2022-07-26T08:50:45.381Z,18.27
2022-07-26T08:51:45.421Z,18.20
2022-07-26T08:52:45.342Z,18.23
2022-07-26T08:53:45.320Z,18.26
2022-07-26T08:54:45.367Z,18.32
2022-07-26T08:56:05.933Z,18.29
2022-07-26T08:56:45.290Z,18.23
2022-07-26T08:57:45.283Z,18.27
2022-07-26T08:58:45.497Z,18.29
2022-07-26T08:59:45.288Z,18.07
2022-07-26T09:00:45.325Z,18.21
2022-07-26T09:01:45.241Z,18.35
2022-07-26T09:02:45.229Z,18.48
2022-07-26T09:03:45.471Z,18.65
2022-07-26T09:04:45.308Z,18.65
2022-07-26T09:05:45.198Z,18.70
2022-07-26T09:06:45.293Z,18.76
2022-07-26T09:07:45.347Z,18.94
2022-07-26T09:08:45.170Z,18.92
2022-07-26T09:09:45.190Z,18.90
2022-07-26T09:10:45.158Z,18.85
2022-07-26T09:11:45.144Z,18.94
2022-07-26T09:12:45.178Z,18.91
2022-07-26T09:13:45.166Z,18.84
2022-07-26T09:14:45.117Z,18.72
2022-07-26T09:15:45.167Z,18.80
2022-07-26T09:16:45.171Z,18.80
2022-07-26T09:17:45.097Z,18.72
2022-07-26T09:18:45.074Z,18.69
2022-07-26T09:19:45.124Z,18.80
2022-07-26T09:20:45.085Z,18.80
2022-07-26T09:21:45.042Z,18.85
2022-07-26T09:22:45.036Z,18.98
2022-07-26T09:23:45.059Z,19.06
2022-07-26T09:24:45.050Z,19.16
2022-07-26T09:25:45.003Z,19.04
2022-07-26T09:26:44.996Z,19.06
2022-07-26T09:27:45.167Z,18.99
2022-07-26T09:28:45.336Z,18.87
2022-07-26T09:29:44.963Z,18.85
2022-07-26T09:30:44.999Z,18.81
2022-07-26T09:31:45.061Z,18.80
2022-07-26T09:32:44.980Z,18.73
2022-07-26T09:33:44.927Z,18.78
2022-07-26T09:34:52.743Z,18.75
2022-07-26T09:35:50.046Z,18.80
2022-07-26T09:36:44.903Z,18.73
2022-07-26T09:37:44.951Z,18.72
2022-07-26T09:38:44.900Z,18.72
2022-07-26T09:39:44.904Z,18.78
2022-07-26T09:40:50.600Z,18.67
2022-07-26T09:41:44.851Z,18.67
2022-07-26T09:42:44.834Z,18.67
2022-07-26T09:43:44.859Z,18.63
2022-07-26T09:44:47.906Z,18.69
2022-07-26T09:45:44.807Z,18.58
2022-07-26T09:46:44.811Z,18.54
2022-07-26T09:47:44.804Z,18.14
2022-07-26T09:49:14.557Z,17.82
2022-07-26T09:49:44.847Z,17.72
2022-07-26T09:50:44.773Z,17.79
2022-07-26T09:51:44.910Z,17.82
2022-07-26T09:52:44.731Z,17.84
2022-07-26T09:53:44.722Z,17.75
2022-07-26T09:54:44.717Z,17.78
2022-07-26T09:55:45.266Z,17.79
2022-07-26T09:56:44.709Z,17.59
2022-07-26T09:57:44.789Z,17.56
2022-07-26T09:58:44.667Z,17.41
2022-07-26T09:59:44.664Z,17.31
2022-07-26T10:00:44.837Z,17.15
2022-07-26T10:01:44.701Z,17.16
2022-07-26T10:02:44.682Z,17.31
2022-07-26T10:03:44.625Z,17.25
2022-07-26T10:04:44.650Z,17.33
2022-07-26T10:05:44.811Z,17.38
2022-07-26T10:06:44.665Z,17.40
2022-07-26T10:07:44.623Z,17.55
2022-07-26T10:08:44.589Z,17.75
2022-07-26T10:09:44.590Z,17.95
2022-07-26T10:10:44.574Z,18.05
2022-07-26T10:11:44.619Z,18.23
2022-07-26T10:12:44.519Z,18.33
2022-07-26T10:13:44.590Z,18.29
2022-07-26T10:14:44.565Z,18.44
2022-07-26T10:15:44.584Z,18.42
2022-07-26T10:16:44.489Z,18.30
2022-07-26T10:17:44.490Z,18.47
2022-07-26T10:18:44.464Z,18.44
2022-07-26T10:19:45.399Z,18.36
2022-07-26T10:20:44.497Z,18.41
2022-07-26T10:21:44.437Z,18.42
2022-07-26T10:22:44.436Z,18.51
2022-07-26T10:23:44.442Z,18.29
2022-07-26T10:24:44.406Z,18.29
2022-07-26T10:25:44.404Z,18.37
2022-07-26T10:26:44.641Z,18.50
2022-07-26T10:27:44.375Z,18.70
2022-07-26T10:28:44.449Z,18.73
2022-07-26T10:29:44.374Z,18.92
2022-07-26T10:30:44.381Z,18.94
2022-07-26T10:31:44.460Z,18.82
2022-07-26T10:32:44.328Z,18.65
2022-07-26T10:33:44.355Z,18.63
2022-07-26T10:34:44.310Z,18.60
2022-07-26T10:35:44.318Z,18.70
2022-07-26T10:36:44.305Z,18.82
2022-07-26T10:37:44.286Z,18.94
2022-07-26T10:38:44.277Z,18.99
2022-07-26T10:39:44.269Z,19.11
2022-07-26T10:40:44.306Z,19.19
2022-07-26T10:41:44.263Z,19.11
2022-07-26T10:42:44.263Z,19.18
2022-07-26T10:43:44.286Z,19.56
2022-07-26T10:44:44.276Z,19.80
2022-07-26T10:45:44.237Z,19.66
2022-07-26T10:46:44.281Z,19.76
2022-07-26T10:47:44.211Z,19.76
2022-07-26T10:48:44.268Z,19.61
2022-07-26T10:49:44.227Z,19.36
2022-07-26T10:50:44.186Z,19.28
2022-07-26T10:51:44.179Z,19.29
2022-07-26T10:52:44.200Z,19.06
2022-07-26T10:53:44.176Z,18.99
2022-07-26T10:54:44.183Z,18.95
2022-07-26T10:55:44.147Z,18.82
2022-07-26T10:56:44.144Z,18.57
2022-07-26T10:57:44.141Z,18.55
2022-07-26T10:58:44.123Z,18.47
2022-07-26T10:59:55.815Z,18.54
2022-07-26T11:00:44.103Z,18.36
2022-07-26T11:01:44.186Z,18.37
2022-07-26T11:02:44.265Z,18.30
2022-07-26T11:03:44.108Z,18.35
2022-07-26T11:04:44.073Z,18.41
2022-07-26T11:05:44.063Z,18.52
2022-07-26T11:06:44.122Z,18.51
2022-07-26T11:07:44.047Z,18.66
2022-07-26T11:08:47.902Z,18.78
2022-07-26T11:09:44.034Z,18.66
2022-07-26T11:10:44.019Z,18.78
2022-07-26T11:11:46.923Z,18.73
2022-07-26T11:12:44.025Z,18.75
2022-07-26T11:13:43.994Z,18.84
2022-07-26T11:14:48.265Z,18.90
2022-07-26T11:15:44.010Z,18.85
2022-07-26T11:16:43.990Z,18.92
2022-07-26T11:17:43.954Z,18.88
2022-07-26T11:18:43.939Z,19.06
2022-07-26T11:19:43.937Z,19.10
2022-07-26T11:20:43.934Z,19.31
2022-07-26T11:21:43.976Z,19.37
2022-07-26T11:22:43.907Z,19.59
2022-07-26T11:23:43.914Z,19.61
2022-07-26T11:24:43.891Z,19.65
2022-07-26T11:25:43.885Z,19.47
2022-07-26T11:26:43.865Z,19.40
2022-07-26T11:27:43.863Z,19.21
2022-07-26T11:28:43.883Z,19.19
2022-07-26T11:29:49.242Z,19.19
2022-07-26T11:30:43.859Z,19.19
2022-07-26T11:31:50.329Z,19.25
2022-07-26T11:32:43.812Z,18.99
2022-07-26T11:33:43.807Z,18.90
2022-07-26T11:34:43.825Z,18.94
2022-07-26T11:35:43.783Z,18.92
2022-07-26T11:36:43.796Z,18.85
2022-07-26T11:37:43.771Z,18.88
2022-07-26T11:38:43.769Z,18.87
2022-07-26T11:39:43.757Z,18.95
2022-07-26T11:40:43.740Z,18.94
2022-07-26T11:41:43.769Z,19.14
2022-07-26T11:42:43.722Z,19.02
2022-07-26T11:43:43.730Z,19.06
2022-07-26T11:44:43.719Z,18.91
2022-07-26T11:45:43.689Z,19.00
2022-07-26T11:46:43.799Z,18.85
2022-07-26T11:47:43.676Z,18.72
2022-07-26T11:48:43.717Z,18.63
2022-07-26T11:50:00.233Z,18.62
2022-07-26T11:50:43.652Z,18.54
2022-07-26T11:51:43.661Z,18.52
2022-07-26T11:52:43.639Z,18.63
2022-07-26T11:53:43.623Z,18.65
2022-07-26T11:54:43.606Z,18.66
2022-07-26T11:55:47.366Z,18.66
2022-07-26T11:56:43.595Z,18.65
2022-07-26T11:57:43.606Z,18.66
2022-07-26T11:58:43.882Z,18.66
2022-07-26T11:59:43.597Z,18.66
2022-07-26T12:00:43.606Z,18.76
2022-07-26T12:01:43.623Z,18.57
2022-07-26T12:02:43.673Z,18.52
2022-07-26T12:03:44.029Z,18.60
2022-07-26T12:04:43.870Z,18.66
2022-07-26T12:05:43.595Z,18.63
2022-07-26T12:06:43.582Z,18.67
2022-07-26T12:07:43.488Z,18.65
2022-07-26T12:08:43.685Z,18.62
2022-07-26T12:09:43.883Z,18.66
2022-07-26T12:10:43.691Z,18.58
2022-07-26T12:11:43.708Z,18.55
2022-07-26T12:12:43.571Z,18.70
2022-07-26T12:13:55.668Z,18.62
2022-07-26T12:14:43.636Z,18.55
2022-07-26T12:15:43.621Z,18.55
2022-07-26T12:16:43.496Z,18.54
2022-07-26T12:17:43.385Z,18.67
2022-07-26T12:18:43.386Z,18.57
2022-07-26T12:19:44.329Z,18.57
2022-07-26T12:20:43.524Z,18.65
2022-07-26T12:21:45.418Z,18.80
2022-07-26T12:22:43.359Z,18.73
2022-07-26T12:23:43.435Z,18.82
2022-07-26T12:24:44.262Z,18.80
2022-07-26T12:25:46.816Z,18.76
2022-07-26T12:26:43.469Z,18.85
2022-07-26T12:27:43.510Z,18.88
2022-07-26T12:28:43.721Z,18.90
2022-07-26T12:29:43.320Z,18.84
2022-07-26T12:30:43.328Z,18.70
2022-07-26T12:31:43.568Z,18.75
2022-07-26T12:32:43.466Z,18.81
2022-07-26T12:33:43.296Z,18.82
2022-07-26T12:34:43.219Z,18.85
2022-07-26T12:35:43.855Z,18.98
2022-07-26T12:36:43.300Z,19.04
2022-07-26T12:37:43.245Z,18.95
2022-07-26T12:38:43.349Z,19.02
2022-07-26T12:39:43.653Z,19.00
2022-07-26T12:40:43.322Z,19.00
2022-07-26T12:41:43.276Z,19.11
2022-07-26T12:42:43.244Z,19.13
2022-07-26T12:43:43.124Z,19.13
2022-07-26T12:44:43.099Z,19.18
2022-07-26T12:45:43.169Z,19.21
2022-07-26T12:46:43.186Z,19.22
2022-07-26T12:47:43.091Z,19.22
2022-07-26T12:48:43.124Z,19.25
2022-07-26T12:49:43.052Z,19.14
2022-07-26T12:50:43.075Z,19.19
2022-07-26T12:51:43.026Z,19.18
2022-07-26T12:52:43.035Z,19.10